Key West, FL (33040)

1:07 AM EDT on October 23, 2014 (GMT -0400)
Big Coppitt Key Gulfside | Change Station
CLOSE
Current Station
Personal Weather Station
Location: Key West, FL
Elevation: 31 ft
Nearby Weather Stations

Elev 31 ft 24.60 °N, 81.67 °W | Updated 10 minutes ago

Mostly Cloudy
Mostly Cloudy
73.0 °F
Feels Like 73.0 °F
N
6.8
Wind Variable Wind from ESE

Today
High -- | Low -- °F
--% Chance of Precip.
Yesterday
High -- | Low -- °F
Precip. -- in
7:28 AM 6:52 PM
Waning Crescent, 1% visible
Pressure 29.91 in
Visibility 10.0 miles
Clouds Clear
Dew Point 71 °F
Humidity 93%
Rainfall 0.02 in
Snow Depth Not available.
UV 0 out of 12
Pollen 1.60 out of 12
Air Quality Not available.
Flu Activity Local Activity
METAR KNQX 230453Z AUTO 07011KT 10SM CLR 23/21 A2991 RMK AO2 SLP128 T02330211 $

More Conditions Fewer Conditions

Pressure 29.91 in
Visibility 10.0 miles
Clouds Clear
Dew Point 71 °F
Humidity 93%
Rainfall 0.02 in
Snow Depth Not available.
UV 0 out of 12
Pollen 1.60 out of 12
Air Quality Not available.
Flu Activity Local Activity
METAR KNQX 230453Z AUTO 07011KT 10SM CLR 23/21 A2991 RMK AO2 SLP128 T02330211 $

More Conditions Fewer Conditions

Nowcast | as of 12:57 am EDT on October 23, 2014

An expansive area of moderate to heavy rain with a few embedded showers and thunderstorms is impacting the Florida Straits. The stronger activity is well south...beyond 40 nm offshore of the middle lower and Marquesas Keys. These stronger showers will produce wind gusts near 25 knots...less than 2 mile visibility in heavy rain...and a rare lightning strike. Through 200 am...light rain will continue to spread across the Florida Keys.

×

10-Day Weather Forecast

Almanac

Astronomy

Oct. 23, 2014 Rise Set
Actual Time 7:28 AM EDT 6:52 PM EDT
Civil Twilight 7:05 AM EDT 7:16 PM EDT
Nautical Twilight 6:38 AM EDT 7:42 PM EDT
Astronomical Twilight 6:11 AM EDT 8:09 PM EDT
Moon 7:09 AM EDT 6:53 PM EDT
Length of Visible Light 12h 10m
Length of Day
11h 24m
Tomorrow will be 1m 19s shorter.
Waning Crescent, 1% of the Moon is Illuminated
Today
Waning Crescent
Oct 23
New
Oct 30
First Quarter
Nov 6
Full
Nov 14
Last Quarter

Today's Extremes

State Highs State Lows

Community

WunderPhotos

Upload Photos

1,764,169 photos uploaded!

Nearby

Snow Depth

Station Depth Elevation
No new snow has been reported.

Earthquake Activity

City Distance Mag. Time & Date
No recent earthquake activity has been reported nearby.
Minimum magnitude displayed is 2.5.

Coastal Water Temperatures

Place Temperature
Key West, FL 82.0 °F
Vaca Key, FL 80.1 °F

Nearby Weather Stations